Time;durP1;ratioP1;P1;durP2;ratioP2;P2;SDS_P1;SDS_P2;PMS_P1;PMS_P2;Temp;Humidity;BMP_temperature;BMP_pressure;BME280_temperature;BME280_humidity;BME280_pressure;Samples;Min_cycle;Max_cycle;Signal;HPM_P1;HPM_P2
2022/05/25 00:00:36;;;;;;;5.30;1.80;;;20.90;62.40;;;;;;5045127;28;20033;-66
2022/05/25 00:03:02;;;;;;;5.43;1.90;;;20.90;62.30;;;;;;5032079;28;20306;-66
2022/05/25 00:05:30;;;;;;;5.63;1.90;;;20.90;62.30;;;;;;5051047;28;20414;-66
2022/05/25 00:07:56;;;;;;;6.30;2.03;;;20.80;62.20;;;;;;5035207;28;20128;-66
2022/05/25 00:10:22;;;;;;;5.63;1.85;;;20.80;62.00;;;;;;5034425;28;20033;-66
2022/05/25 00:12:47;;;;;;;5.28;1.83;;;20.80;62.20;;;;;;5040232;28;20509;-66
2022/05/25 00:15:13;;;;;;;8.80;1.98;;;20.80;62.10;;;;;;5032536;28;20036;-67
2022/05/25 00:17:39;;;;;;;4.70;1.85;;;20.80;62.00;;;;;;5041821;28;20052;-66
2022/05/25 00:20:05;;;;;;;3.85;1.70;;;20.80;62.30;;;;;;5040575;28;20508;-66
2022/05/25 00:22:45;;;;;;;4.85;1.50;;;20.80;62.30;;;;;;5042118;28;20058;-66
2022/05/25 00:25:13;;;;;;;4.70;1.70;;;20.80;61.80;;;;;;5036901;28;20098;-66
2022/05/25 00:27:39;;;;;;;6.57;1.83;;;20.70;61.80;;;;;;5038428;28;20462;-66
2022/05/25 00:30:05;;;;;;;6.70;1.80;;;20.70;61.80;;;;;;5041282;28;20061;-66
2022/05/25 00:32:32;;;;;;;6.25;1.80;;;20.70;61.80;;;;;;5045880;28;20037;-66
2022/05/25 00:34:57;;;;;;;5.03;1.85;;;20.70;61.80;;;;;;5040959;28;20057;-67
2022/05/25 00:37:23;;;;;;;6.15;1.90;;;20.70;61.80;;;;;;5035683;28;20126;-66
2022/05/25 00:39:49;;;;;;;4.72;1.77;;;20.70;61.80;;;;;;5041247;28;20095;-67
2022/05/25 00:42:16;;;;;;;5.07;1.70;;;20.70;61.80;;;;;;5043886;28;20104;-66
2022/05/25 00:44:42;;;;;;;4.70;1.55;;;20.70;61.80;;;;;;5043527;28;20033;-66
2022/05/25 00:47:07;;;;;;;5.82;1.70;;;20.60;61.80;;;;;;5046604;28;20103;-67
2022/05/25 00:49:33;;;;;;;3.80;1.70;;;20.60;61.70;;;;;;5043958;28;20086;-66
2022/05/25 00:52:01;;;;;;;3.65;1.65;;;20.60;61.70;;;;;;5067326;28;20128;-66
2022/05/25 00:54:29;;;;;;;4.95;1.73;;;20.60;61.70;;;;;;5047019;28;20485;-66
2022/05/25 00:56:55;;;;;;;4.53;1.73;;;20.60;61.80;;;;;;5025361;28;20104;-67
2022/05/25 00:59:24;;;;;;;5.28;1.77;;;20.60;61.80;;;;;;5039005;28;20078;-66
2022/05/25 01:01:50;;;;;;;6.35;1.80;;;20.60;61.80;;;;;;5037852;28;20060;-66
2022/05/25 01:04:16;;;;;;;3.92;1.50;;;20.60;61.90;;;;;;5028740;28;20107;-67
2022/05/25 01:07:06;;;;;;;5.30;1.98;;;20.60;61.80;;;;;;5041394;28;20428;-66
2022/05/25 01:09:41;;;;;;;4.68;1.70;;;20.50;61.90;;;;;;5034211;28;20052;-66
2022/05/25 01:12:15;;;;;;;;;;;20.50;61.90;;;;;;5074245;28;20017;-66
2022/05/25 01:15:09;;;;;;;6.93;1.60;;;20.50;61.80;;;;;;5040391;28;19913;-67
2022/05/25 01:18:06;;;;;;;2.88;1.38;;;20.50;61.90;;;;;;5060186;28;20550;-66
2022/05/25 01:20:42;;;;;;;4.55;1.70;;;20.50;61.90;;;;;;5041286;28;20068;-66
2022/05/25 01:23:34;;;;;;;5.40;1.70;;;20.50;61.90;;;;;;5040546;28;20033;-67
2022/05/25 01:26:32;;;;;;;4.70;1.65;;;20.50;61.90;;;;;;5032555;28;20028;-66
2022/05/25 01:29:23;;;;;;;4.22;1.70;;;20.50;61.90;;;;;;5067917;28;20120;-66
2022/05/25 01:32:05;;;;;;;4.35;1.67;;;20.40;61.80;;;;;;5038986;28;20036;-67
2022/05/25 01:34:31;;;;;;;5.30;1.70;;;20.40;61.80;;;;;;5028456;28;20521;-66
2022/05/25 01:37:05;;;;;;;3.88;1.77;;;20.40;61.80;;;;;;5033806;28;20052;-66
2022/05/25 01:39:32;;;;;;;3.72;1.50;;;20.40;61.90;;;;;;5049311;28;20024;-67
2022/05/25 01:42:00;;;;;;;3.53;1.50;;;20.40;61.90;;;;;;5043957;28;20091;-66
2022/05/25 01:44:56;;;;;;;4.65;1.55;;;20.40;61.90;;;;;;5029928;28;20033;-66
2022/05/25 01:47:23;;;;;;;3.85;1.55;;;20.40;62.00;;;;;;5047911;28;20414;-66
2022/05/25 01:50:10;;;;;;;4.45;1.60;;;20.40;62.00;;;;;;5045325;28;20436;-67
2022/05/25 01:52:40;;;;;;;3.15;1.73;;;20.40;61.90;;;;;;5038595;28;20491;-66
2022/05/25 01:55:08;;;;;;;3.97;1.50;;;20.40;62.00;;;;;;5062790;28;20168;-67
2022/05/25 01:57:35;;;;;;;4.65;1.70;;;20.40;62.00;;;;;;5055770;28;20025;-67
2022/05/25 02:00:01;;;;;;;3.95;1.50;;;20.30;61.90;;;;;;5052887;28;20030;-67
2022/05/25 02:05:13;;;;;;;3.38;1.50;;;20.30;62.00;;;;;;5043257;28;20036;-66
2022/05/25 02:08:20;;;;;;;4.32;1.60;;;20.30;61.90;;;;;;5040801;28;20029;-66
2022/05/25 02:11:43;;;;;;;4.35;1.70;;;20.30;62.00;;;;;;5029109;28;20052;-66
2022/05/25 02:14:29;;;;;;;4.35;1.50;;;20.30;62.00;;;;;;5015795;28;20327;-67
2022/05/25 02:17:05;;;;;;;3.88;1.50;;;20.30;62.00;;;;;;5035442;28;20509;-66
2022/05/25 02:19:48;;;;;;;3.22;1.48;;;20.30;62.00;;;;;;4982685;28;20505;-67
2022/05/25 02:22:21;;;;;;;4.70;1.60;;;20.20;62.00;;;;;;4999241;28;20522;-67
2022/05/25 02:24:48;;;;;;;3.22;1.50;;;20.20;62.00;;;;;;4983787;28;20378;-66
2022/05/25 02:27:23;;;;;;;4.32;1.63;;;20.20;62.00;;;;;;5040134;28;20041;-66
2022/05/25 02:29:50;;;;;;;3.97;1.50;;;20.20;62.00;;;;;;5038726;28;20260;-66
2022/05/25 02:32:21;;;;;;;5.13;1.60;;;20.20;62.00;;;;;;5039446;28;20067;-67
2022/05/25 02:34:48;;;;;;;3.80;1.50;;;20.20;62.00;;;;;;5023214;28;20037;-67
2022/05/25 02:37:14;;;;;;;2.95;1.27;;;20.20;62.00;;;;;;4981049;28;20537;-66
2022/05/25 02:39:39;;;;;;;3.85;1.50;;;20.20;62.00;;;;;;5004387;28;20030;-66
2022/05/25 02:42:12;;;;;;;4.00;1.60;;;20.20;62.00;;;;;;5026734;28;20041;-67
2022/05/25 02:44:38;;;;;;;2.80;1.48;;;20.20;62.00;;;;;;5026476;28;20037;-66
2022/05/25 02:47:04;;;;;;;4.38;1.48;;;20.10;62.00;;;;;;5026904;28;20033;-66
2022/05/25 02:49:29;;;;;;;5.20;1.50;;;20.20;62.00;;;;;;5036349;28;20044;-67
2022/05/25 02:51:55;;;;;;;3.97;1.50;;;20.10;62.00;;;;;;5035726;28;20018;-67
2022/05/25 02:54:22;;;;;;;4.00;1.30;;;20.10;62.00;;;;;;5046519;28;20116;-66
2022/05/25 02:56:49;;;;;;;3.40;1.50;;;20.10;62.00;;;;;;5047430;28;20037;-67
2022/05/25 02:59:14;;;;;;;3.70;1.40;;;20.10;62.00;;;;;;5043495;28;20036;-66
2022/05/25 03:01:40;;;;;;;4.97;1.30;;;20.10;62.00;;;;;;5069051;28;20027;-66
2022/05/25 03:04:05;;;;;;;5.50;1.60;;;20.10;62.10;;;;;;5035116;28;20020;-67
2022/05/25 03:06:31;;;;;;;3.67;1.38;;;20.10;62.00;;;;;;5040703;28;20045;-67
2022/05/25 03:08:57;;;;;;;2.60;1.30;;;20.10;62.00;;;;;;5043513;28;20087;-67
2022/05/25 03:11:24;;;;;;;4.53;1.60;;;20.10;62.00;;;;;;5040227;28;20412;-67
2022/05/25 03:13:49;;;;;;;5.18;1.35;;;20.00;61.90;;;;;;5036434;28;20033;-67
2022/05/25 03:16:16;;;;;;;7.15;1.42;;;20.00;61.90;;;;;;5038915;28;20039;-67
2022/05/25 03:18:43;;;;;;;4.00;1.50;;;20.00;61.90;;;;;;5052357;28;20033;-67
2022/05/25 03:21:09;;;;;;;3.03;1.30;;;20.00;61.90;;;;;;5042254;28;20036;-67
2022/05/25 03:23:35;;;;;;;3.63;1.33;;;20.00;61.90;;;;;;5043733;28;20030;-67
2022/05/25 03:26:01;;;;;;;3.90;1.55;;;20.00;61.90;;;;;;5046064;28;20024;-67
2022/05/25 03:28:26;;;;;;;3.50;1.25;;;20.00;61.90;;;;;;5040824;28;20039;-66
2022/05/25 03:30:52;;;;;;;3.20;1.30;;;20.00;62.00;;;;;;5041792;28;20021;-67
2022/05/25 03:33:18;;;;;;;3.13;1.40;;;20.00;62.00;;;;;;5044353;28;20033;-67
2022/05/25 03:35:43;;;;;;;3.70;1.20;;;19.90;61.90;;;;;;5039408;28;20039;-66
2022/05/25 03:38:09;;;;;;;4.25;1.50;;;19.90;61.90;;;;;;5039546;28;20112;-67
2022/05/25 03:40:35;;;;;;;3.50;1.25;;;19.90;61.90;;;;;;5036755;28;20400;-67
2022/05/25 03:43:01;;;;;;;3.97;1.50;;;19.90;61.90;;;;;;5053483;28;20042;-67
2022/05/25 03:45:27;;;;;;;3.92;1.38;;;19.90;61.90;;;;;;5039794;28;20090;-67
2022/05/25 03:47:53;;;;;;;3.58;1.30;;;19.90;61.90;;;;;;5040339;28;20077;-67
2022/05/25 03:50:19;;;;;;;2.60;1.15;;;19.90;61.90;;;;;;5046220;28;20514;-66
2022/05/25 03:52:46;;;;;;;2.63;1.30;;;19.90;61.90;;;;;;5041536;28;20033;-67
2022/05/25 03:55:11;;;;;;;3.58;1.40;;;19.90;61.90;;;;;;5038094;28;20028;-67
2022/05/25 03:57:37;;;;;;;3.72;1.30;;;19.90;61.80;;;;;;5039696;28;20854;-67
2022/05/25 04:00:06;;;;;;;4.40;1.60;;;19.90;61.80;;;;;;5035788;28;20029;-67
2022/05/25 04:02:32;;;;;;;4.18;1.45;;;19.80;61.80;;;;;;5039596;28;20033;-67
2022/05/25 04:05:10;;;;;;;3.22;1.30;;;19.80;61.80;;;;;;5041126;28;20025;-67
2022/05/25 04:07:40;;;;;;;4.97;1.63;;;19.80;61.80;;;;;;5035283;28;20375;-67
2022/05/25 04:10:07;;;;;;;2.78;1.40;;;19.80;61.90;;;;;;5030901;28;20489;-67
2022/05/25 04:12:32;;;;;;;2.97;1.30;;;19.80;61.80;;;;;;5045593;28;20029;-67
2022/05/25 04:14:58;;;;;;;2.65;1.23;;;19.80;61.80;;;;;;5036700;28;20428;-67
2022/05/25 04:17:24;;;;;;;2.83;1.40;;;19.80;61.80;;;;;;5034322;28;20029;-67
2022/05/25 04:19:50;;;;;;;3.17;1.40;;;19.80;61.90;;;;;;5031676;28;20417;-67
2022/05/25 04:22:16;;;;;;;3.00;1.20;;;19.80;61.90;;;;;;5034751;28;20041;-67
2022/05/25 04:24:42;;;;;;;1.88;1.13;;;19.80;61.80;;;;;;5032645;28;20473;-67
2022/05/25 04:27:08;;;;;;;2.47;1.20;;;19.80;61.80;;;;;;5035807;28;20038;-67
2022/05/25 04:29:36;;;;;;;2.00;1.30;;;19.80;61.90;;;;;;5038570;28;20425;-67
2022/05/25 04:32:02;;;;;;;1.80;1.05;;;19.80;61.80;;;;;;5033589;28;20068;-67
2022/05/25 04:34:28;;;;;;;3.53;1.30;;;19.80;61.80;;;;;;5036279;28;20021;-67
2022/05/25 04:36:54;;;;;;;4.05;1.17;;;19.80;61.80;;;;;;5042342;28;20029;-67
2022/05/25 04:39:20;;;;;;;3.28;1.30;;;19.80;61.90;;;;;;5031055;28;20036;-67
2022/05/25 04:41:46;;;;;;;3.63;1.20;;;19.80;62.00;;;;;;5035899;28;20036;-67
2022/05/25 04:44:12;;;;;;;3.58;1.27;;;19.80;62.00;;;;;;5042989;28;20033;-67
2022/05/25 04:46:38;;;;;;;3.33;1.08;;;19.80;62.00;;;;;;5041645;28;20041;-67
2022/05/25 04:49:04;;;;;;;2.22;1.17;;;19.70;62.00;;;;;;5030814;28;20045;-67
2022/05/25 04:51:29;;;;;;;2.67;1.10;;;19.70;62.00;;;;;;5036582;28;20021;-67
2022/05/25 04:53:55;;;;;;;4.78;1.30;;;19.80;62.20;;;;;;5033056;28;20053;-67
2022/05/25 04:59:05;;;;;;;5.65;1.40;;;19.80;62.00;;;;;;5035459;28;20098;-67
2022/05/25 05:01:31;;;;;;;3.30;1.20;;;19.80;62.20;;;;;;5040963;28;20048;-67
2022/05/25 05:03:56;;;;;;;3.05;1.20;;;19.80;62.20;;;;;;5032519;28;20088;-67
2022/05/25 05:06:23;;;;;;;4.20;1.05;;;19.80;62.20;;;;;;5033762;28;20113;-67
2022/05/25 05:08:49;;;;;;;3.65;1.15;;;19.80;62.20;;;;;;5031409;28;20456;-67
2022/05/25 05:11:17;;;;;;;2.13;1.00;;;19.70;62.20;;;;;;5032257;28;20052;-67
2022/05/25 05:13:43;;;;;;;2.72;1.30;;;19.70;62.20;;;;;;5036953;28;20119;-67
2022/05/25 05:16:11;;;;;;;1.65;1.10;;;19.70;62.20;;;;;;5035056;28;20147;-67
2022/05/25 05:18:36;;;;;;;2.40;1.10;;;19.70;62.20;;;;;;5034036;28;20044;-67
2022/05/25 05:21:03;;;;;;;1.67;1.10;;;19.80;62.30;;;;;;5030372;28;20103;-67
2022/05/25 05:23:29;;;;;;;2.97;1.17;;;19.70;62.30;;;;;;5032870;28;20426;-67
2022/05/25 05:25:56;;;;;;;3.38;1.15;;;19.70;62.20;;;;;;5033310;28;20029;-67
2022/05/25 05:28:28;;;;;;;3.45;1.20;;;19.70;62.30;;;;;;5035174;28;20517;-67
2022/05/25 05:30:56;;;;;;;2.03;1.20;;;19.70;62.30;;;;;;5039998;28;20033;-67
2022/05/25 05:33:22;;;;;;;2.58;1.30;;;19.70;62.30;;;;;;5031877;28;20025;-67
2022/05/25 05:35:50;;;;;;;3.70;1.20;;;19.70;62.30;;;;;;5036447;28;20171;-67
2022/05/25 05:38:16;;;;;;;3.10;1.20;;;19.70;62.30;;;;;;5035322;28;20029;-67
2022/05/25 05:40:41;;;;;;;2.28;1.20;;;19.70;62.30;;;;;;5045279;28;20211;-68
2022/05/25 05:43:07;;;;;;;2.63;1.10;;;19.70;62.30;;;;;;5037606;28;20111;-67
2022/05/25 05:45:35;;;;;;;1.80;1.00;;;19.70;62.30;;;;;;5030757;28;20040;-67
2022/05/25 05:48:06;;;;;;;2.63;1.15;;;19.70;62.30;;;;;;5034008;28;20179;-68
2022/05/25 05:50:35;;;;;;;2.58;1.20;;;19.70;62.30;;;;;;5038311;28;20033;-67
2022/05/25 05:53:03;;;;;;;2.83;1.10;;;19.70;62.30;;;;;;5038663;28;20025;-66
2022/05/25 05:55:31;;;;;;;3.58;1.33;;;19.70;62.30;;;;;;5032735;28;20034;-67
2022/05/25 05:57:56;;;;;;;1.30;1.10;;;19.70;62.30;;;;;;5033653;28;20025;-67
2022/05/25 06:00:22;;;;;;;2.00;1.08;;;19.70;62.30;;;;;;5031736;28;20417;-67
2022/05/25 06:02:50;;;;;;;2.05;0.98;;;19.70;62.20;;;;;;5029692;28;20029;-67
2022/05/25 06:05:15;;;;;;;2.50;1.20;;;19.70;62.20;;;;;;5032502;28;20061;-67
2022/05/25 06:07:41;;;;;;;4.03;1.30;;;19.60;62.20;;;;;;5030527;28;20600;-67
2022/05/25 06:10:07;;;;;;;3.35;1.00;;;19.60;62.20;;;;;;5034137;28;20037;-67
2022/05/25 06:12:33;;;;;;;2.17;1.00;;;19.60;62.20;;;;;;5032750;28;20405;-67
2022/05/25 06:19:25;;;;;;;3.15;1.15;;;19.60;62.20;;;;;;5032027;28;20029;-68
2022/05/25 06:20:37;;;;;;;2.38;1.20;;;19.60;62.20;;;;;;5034411;28;20046;-67
2022/05/25 06:23:03;;;;;;;2.65;1.10;;;19.60;62.20;;;;;;5034893;28;20029;-67
2022/05/25 06:25:28;;;;;;;2.25;1.13;;;19.60;62.10;;;;;;5036224;28;20401;-67
2022/05/25 06:27:55;;;;;;;3.80;1.23;;;19.60;62.10;;;;;;5035952;28;20079;-67
2022/05/25 06:30:20;;;;;;;2.55;1.00;;;19.60;62.10;;;;;;5034336;28;20396;-67
2022/05/25 06:32:46;;;;;;;2.00;1.10;;;19.70;62.10;;;;;;5039872;28;20025;-67
2022/05/25 06:35:13;;;;;;;2.85;1.25;;;19.60;62.00;;;;;;5036066;28;20037;-67
2022/05/25 06:37:39;;;;;;;2.80;1.17;;;19.60;62.00;;;;;;5033393;28;20025;-67
2022/05/25 06:40:05;;;;;;;2.03;1.13;;;19.70;62.10;;;;;;5038783;28;20036;-67
2022/05/25 06:42:30;;;;;;;1.88;0.93;;;19.60;62.00;;;;;;5045348;28;20021;-67
2022/05/25 06:44:56;;;;;;;3.42;1.23;;;19.60;62.00;;;;;;5042405;28;20033;-67
2022/05/25 06:47:22;;;;;;;3.53;1.23;;;19.60;62.00;;;;;;5036787;28;20156;-67
2022/05/25 06:49:50;;;;;;;2.97;1.25;;;19.60;62.10;;;;;;5038789;28;20117;-67
2022/05/25 06:52:16;;;;;;;2.10;0.90;;;19.60;62.00;;;;;;5037479;28;20029;-67
2022/05/25 06:54:42;;;;;;;2.60;1.15;;;19.60;62.00;;;;;;5034960;28;20135;-67
2022/05/25 06:57:07;;;;;;;2.10;0.95;;;19.60;62.20;;;;;;5043438;28;20029;-67
2022/05/25 06:59:33;;;;;;;3.33;1.10;;;19.60;63.10;;;;;;5038820;28;20070;-68
2022/05/25 07:01:59;;;;;;;2.80;1.05;;;19.60;62.10;;;;;;5032682;28;20029;-67
2022/05/25 07:04:24;;;;;;;2.55;1.08;;;19.60;61.90;;;;;;5033393;28;20025;-67
2022/05/25 07:06:50;;;;;;;2.67;1.27;;;19.60;62.00;;;;;;5040996;28;20104;-67
2022/05/25 07:09:16;;;;;;;2.90;1.30;;;19.60;62.00;;;;;;5034119;28;20073;-68
2022/05/25 07:11:42;;;;;;;4.07;1.30;;;19.60;61.90;;;;;;5039190;28;20044;-67
2022/05/25 07:14:08;;;;;;;2.20;1.20;;;19.60;62.00;;;;;;5033269;28;20039;-67
2022/05/25 07:16:34;;;;;;;3.08;1.10;;;19.60;61.90;;;;;;5034091;28;20031;-67
2022/05/25 07:19:00;;;;;;;3.00;1.20;;;19.60;61.90;;;;;;5032298;28;20036;-67
2022/05/25 07:21:27;;;;;;;1.73;1.02;;;19.60;61.90;;;;;;5039772;28;20037;-67
2022/05/25 07:23:54;;;;;;;4.00;1.13;;;19.60;61.90;;;;;;5034424;28;20045;-67
2022/05/25 07:26:21;;;;;;;2.30;0.98;;;19.60;61.90;;;;;;5035099;28;20064;-67
2022/05/25 07:28:47;;;;;;;1.50;1.02;;;19.70;61.80;;;;;;5024923;28;20042;-67
2022/05/25 07:31:35;;;;;;;4.70;1.27;;;19.60;61.70;;;;;;5040138;28;20033;-68
2022/05/25 07:34:04;;;;;;;3.28;0.90;;;19.70;62.00;;;;;;5043229;28;20028;-67
2022/05/25 07:36:30;;;;;;;3.75;1.20;;;19.70;62.10;;;;;;5038607;28;20028;-67
2022/05/25 07:38:58;;;;;;;4.40;1.15;;;19.70;62.20;;;;;;5071251;28;20037;-68
2022/05/25 07:41:24;;;;;;;1.90;1.02;;;19.70;62.20;;;;;;5035685;28;20032;-68
2022/05/25 07:43:53;;;;;;;3.40;1.08;;;19.70;62.30;;;;;;5041807;28;20025;-68
2022/05/25 07:46:20;;;;;;;2.33;0.90;;;19.70;62.30;;;;;;5040505;28;20516;-67
2022/05/25 07:48:45;;;;;;;3.22;1.10;;;19.70;62.30;;;;;;5033273;28;20026;-68
2022/05/25 07:51:11;;;;;;;12.25;5.80;;;19.70;62.30;;;;;;5034737;28;20032;-68
2022/05/25 07:53:55;;;;;;;13.93;5.35;;;19.70;62.60;;;;;;5071301;28;20044;-68
2022/05/25 07:56:22;;;;;;;14.15;7.43;;;19.70;63.60;;;;;;5037788;28;20074;-67
2022/05/25 07:58:47;;;;;;;16.80;7.68;;;19.70;64.20;;;;;;5034540;28;20025;-68
2022/05/25 08:01:15;;;;;;;20.05;9.65;;;19.80;64.50;;;;;;5037198;28;20513;-67
2022/05/25 08:06:25;;;;;;;28.40;16.27;;;19.80;64.30;;;;;;5034880;28;20060;-67
2022/05/25 08:08:51;;;;;;;39.25;19.08;;;19.80;64.60;;;;;;5035578;28;20518;-68
2022/05/25 08:11:17;;;;;;;27.00;14.65;;;19.80;65.30;;;;;;5038371;28;20035;-68
2022/05/25 08:13:45;;;;;;;25.05;12.60;;;19.80;64.90;;;;;;5034504;28;20419;-68
2022/05/25 08:16:11;;;;;;;37.63;18.27;;;19.80;65.40;;;;;;5055522;28;20120;-68
2022/05/25 08:18:37;;;;;;;28.88;14.25;;;19.80;65.50;;;;;;5032475;28;20120;-68
2022/05/25 08:21:04;;;;;;;24.50;12.15;;;19.80;65.80;;;;;;5033254;28;20030;-67
2022/05/25 08:23:29;;;;;;;40.85;22.90;;;19.90;66.10;;;;;;5032674;28;20087;-67
2022/05/25 08:25:55;;;;;;;32.85;13.38;;;19.90;66.20;;;;;;5032629;28;20021;-67
2022/05/25 08:28:21;;;;;;;24.70;13.20;;;19.90;66.20;;;;;;5034635;28;20044;-67
2022/05/25 08:30:46;;;;;;;30.05;12.27;;;19.90;66.00;;;;;;5033823;28;20041;-68
2022/05/25 08:33:15;;;;;;;21.35;7.93;;;19.90;66.00;;;;;;5031959;28;20117;-67
2022/05/25 08:35:41;;;;;;;17.75;7.60;;;19.90;64.20;;;;;;5033862;28;20441;-66
2022/05/25 08:38:06;;;;;;;14.82;4.47;;;19.80;64.00;;;;;;5036673;28;20029;-67
2022/05/25 08:40:32;;;;;;;16.52;4.20;;;19.70;62.40;;;;;;5030187;28;20430;-66
2022/05/25 08:43:03;;;;;;;13.13;4.30;;;19.50;61.80;;;;;;5040051;28;20032;-67
2022/05/25 08:45:41;;;;;;;14.90;2.75;;;19.60;62.20;;;;;;5064750;28;20055;-67
2022/05/25 08:48:08;;;;;;;12.25;2.70;;;19.50;61.80;;;;;;5035404;28;20041;-67
2022/05/25 08:50:33;;;;;;;14.15;2.58;;;19.40;62.00;;;;;;5036744;28;20524;-67
2022/05/25 08:53:00;;;;;;;10.20;2.10;;;19.40;62.00;;;;;;5038191;28;20166;-67
2022/05/25 08:55:35;;;;;;;11.30;2.20;;;19.30;62.30;;;;;;5036078;28;20041;-67
2022/05/25 08:58:01;;;;;;;9.18;1.98;;;19.30;62.70;;;;;;5043572;28;20066;-67
2022/05/25 09:00:27;;;;;;;10.82;2.53;;;19.30;62.90;;;;;;5039344;28;20029;-67
2022/05/25 09:02:59;;;;;;;12.70;2.35;;;19.30;63.20;;;;;;5036802;28;20649;-67
2022/05/25 09:05:34;;;;;;;13.52;2.08;;;19.30;63.20;;;;;;5033376;28;20025;-68
2022/05/25 09:08:13;;;;;;;10.85;2.63;;;19.30;63.30;;;;;;5064398;28;20485;-68
2022/05/25 09:10:43;;;;;;;9.52;2.10;;;19.30;63.20;;;;;;5057965;28;20489;-68
2022/05/25 09:13:11;;;;;;;11.48;2.83;;;19.40;63.10;;;;;;5037899;28;20406;-67
2022/05/25 09:16:15;;;;;;;13.13;4.18;;;19.50;63.00;;;;;;5037978;28;20029;-67
2022/05/25 09:18:29;;;;;;;12.35;2.55;;;19.40;63.70;;;;;;5031655;28;20117;-68
2022/05/25 09:20:54;;;;;;;10.80;2.60;;;19.50;63.00;;;;;;5035764;28;20028;-68
2022/05/25 09:23:20;;;;;;;11.90;2.75;;;19.50;62.80;;;;;;5036997;28;20037;-68
2022/05/25 09:25:46;;;;;;;11.57;2.78;;;19.50;62.70;;;;;;5046593;28;20063;-67
2022/05/25 09:28:20;;;;;;;13.68;2.63;;;19.50;62.70;;;;;;5035410;28;20034;-68
2022/05/25 09:30:52;;;;;;;12.48;2.97;;;19.40;62.60;;;;;;5030124;28;20537;-66
2022/05/25 09:33:40;;;;;;;14.65;2.90;;;19.50;63.00;;;;;;5067207;28;20441;-66
2022/05/25 09:36:17;;;;;;;12.93;2.60;;;19.40;62.70;;;;;;5030808;28;20589;-66
2022/05/25 09:38:45;;;;;;;9.93;2.20;;;19.40;62.80;;;;;;5036662;28;20022;-67
2022/05/25 09:41:13;;;;;;;12.60;2.30;;;19.40;62.80;;;;;;5035136;28;20033;-67
2022/05/25 09:43:40;;;;;;;11.38;2.40;;;19.40;62.90;;;;;;5037778;28;20070;-68
2022/05/25 09:46:30;;;;;;;26.15;2.22;;;19.40;62.90;;;;;;5031059;28;20029;-67
2022/05/25 09:49:02;;;;;;;9.80;2.17;;;19.40;63.00;;;;;;5044337;28;20095;-68
2022/05/25 09:51:41;;;;;;;10.02;2.20;;;19.40;62.90;;;;;;5032758;28;20516;-67
2022/05/25 09:54:36;;;;;;;9.90;1.95;;;19.40;62.90;;;;;;5041149;28;20387;-68
2022/05/25 09:57:09;;;;;;;12.40;2.45;;;19.40;62.90;;;;;;5022848;28;20057;-67
2022/05/25 09:59:42;;;;;;;14.55;2.38;;;19.40;62.70;;;;;;5061773;28;20189;-69
2022/05/25 10:02:19;;;;;;;14.98;2.33;;;19.40;62.90;;;;;;5033511;28;20103;-68
2022/05/25 10:04:51;;;;;;;8.57;2.17;;;19.50;62.70;;;;;;5030527;28;20107;-77
2022/05/25 10:07:38;;;;;;;10.65;2.35;;;19.50;62.50;;;;;;5039148;28;20027;-67
2022/05/25 10:10:07;;;;;;;11.63;2.53;;;19.50;62.50;;;;;;5031974;28;20032;-67
2022/05/25 10:12:37;;;;;;;9.13;2.50;;;19.50;62.50;;;;;;5045446;28;20095;-67
2022/05/25 10:15:05;;;;;;;14.95;2.92;;;19.50;62.40;;;;;;5028394;28;20134;-67
2022/05/25 10:17:46;;;;;;;11.57;2.88;;;19.50;62.40;;;;;;5041560;28;20021;-67
2022/05/25 10:20:28;;;;;;;14.48;3.17;;;19.50;62.40;;;;;;5034785;28;20033;-67
2022/05/25 10:23:08;;;;;;;13.88;2.88;;;19.50;62.30;;;;;;5032210;28;20482;-67
2022/05/25 10:25:38;;;;;;;16.77;3.75;;;19.60;62.40;;;;;;5064005;28;20125;-67
2022/05/25 10:28:04;;;;;;;12.80;2.95;;;19.60;62.40;;;;;;5066228;28;20029;-67
2022/05/25 10:36:48;;;;;;;15.57;2.88;;;19.60;62.30;;;;;;5032834;28;20063;-67
2022/05/25 10:39:28;;;;;;;16.52;3.17;;;19.60;62.30;;;;;;5028062;28;20058;-68
2022/05/25 10:42:16;;;;;;;14.90;3.03;;;19.60;62.50;;;;;;5034645;28;20390;-67
2022/05/25 10:44:44;;;;;;;13.45;3.13;;;19.60;62.80;;;;;;5029782;28;20116;-67
2022/05/25 10:47:27;;;;;;;15.77;3.08;;;19.60;62.80;;;;;;5063941;28;20045;-67
2022/05/25 10:49:53;;;;;;;15.98;3.10;;;19.60;62.70;;;;;;5047938;28;20035;-67
2022/05/25 10:52:24;;;;;;;10.60;2.70;;;19.60;62.60;;;;;;5046534;28;20430;-67
2022/05/25 10:54:53;;;;;;;14.52;2.78;;;19.60;62.60;;;;;;5038738;28;20021;-67
2022/05/25 10:57:38;;;;;;;14.25;2.97;;;19.60;62.60;;;;;;5037262;28;20028;-67
2022/05/25 11:00:08;;;;;;;13.50;2.92;;;19.50;62.50;;;;;;5037072;28;20208;-67
2022/05/25 11:02:52;;;;;;;16.65;3.03;;;19.50;62.40;;;;;;5038946;28;20486;-68
2022/05/25 11:05:36;;;;;;;12.63;2.75;;;19.50;62.30;;;;;;5031768;28;20060;-67
2022/05/25 11:08:15;;;;;;;12.70;2.65;;;19.50;62.40;;;;;;5028161;28;20025;-67
2022/05/25 11:10:52;;;;;;;13.23;3.17;;;19.60;62.30;;;;;;5043408;28;20124;-67
2022/05/25 11:13:40;;;;;;;11.73;2.75;;;19.60;62.20;;;;;;5041046;28;20075;-67
2022/05/25 11:16:20;;;;;;;16.73;3.55;;;19.60;62.30;;;;;;5043721;28;20529;-76
2022/05/25 11:18:55;;;;;;;25.77;3.65;;;19.70;62.50;;;;;;5044213;28;20028;-80
2022/05/25 11:21:54;;;;;;;18.70;3.75;;;19.60;62.40;;;;;;5040586;28;20111;-77
2022/05/25 11:24:45;;;;;;;31.15;4.10;;;19.60;62.60;;;;;;5042894;28;20046;-72
2022/05/25 11:27:39;;;;;;;18.42;3.15;;;19.60;62.70;;;;;;5038584;28;20022;-68
2022/05/25 11:30:10;;;;;;;18.13;3.67;;;19.50;62.90;;;;;;5036887;28;20489;-69
2022/05/25 11:33:02;;;;;;;19.70;3.03;;;19.40;63.50;;;;;;5040087;28;20033;-71
2022/05/25 11:36:04;;;;;;;17.25;3.35;;;19.30;63.90;;;;;;5039284;28;20127;-68
2022/05/25 11:39:02;;;;;;;16.67;3.33;;;19.30;65.10;;;;;;5037082;28;20037;-71
2022/05/25 11:41:34;;;;;;;12.88;3.10;;;19.40;64.50;;;;;;5035470;28;20025;-70
2022/05/25 11:44:37;;;;;;;14.88;2.88;;;19.40;63.80;;;;;;5036208;28;20080;-70
2022/05/25 11:47:48;;;;;;;16.92;3.30;;;19.50;63.90;;;;;;5061536;28;20128;-68
2022/05/25 11:50:35;;;;;;;14.02;2.78;;;19.50;63.60;;;;;;5028982;28;20049;-71
2022/05/25 11:53:27;;;;;;;16.98;2.83;;;19.60;63.80;;;;;;5024912;28;20040;-68
2022/05/25 11:56:08;;;;;;;20.73;3.30;;;19.60;63.50;;;;;;5036700;28;20029;-68
2022/05/25 11:58:46;;;;;;;18.27;3.00;;;19.60;63.50;;;;;;5041939;28;20124;-69
2022/05/25 12:01:35;;;;;;;16.48;3.40;;;19.70;63.40;;;;;;5040398;28;20080;-68
2022/05/25 12:04:26;;;;;;;13.38;2.78;;;19.70;63.50;;;;;;5024771;28;20079;-69
2022/05/25 12:07:04;;;;;;;14.98;3.38;;;19.70;63.60;;;;;;4968772;28;20042;-69
2022/05/25 12:09:56;;;;;;;14.82;2.85;;;19.70;63.30;;;;;;4968310;28;20042;-69
2022/05/25 12:12:48;;;;;;;15.82;2.60;;;19.80;63.40;;;;;;4973950;28;20175;-67
2022/05/25 12:15:23;;;;;;;15.73;3.17;;;19.80;64.10;;;;;;4969688;28;20035;-66
2022/05/25 12:18:07;;;;;;;16.33;3.05;;;19.90;64.10;;;;;;4973798;28;20072;-66
2022/05/25 12:20:49;;;;;;;15.10;3.07;;;19.90;63.90;;;;;;4967387;28;20125;-64
2022/05/25 12:23:19;;;;;;;15.80;3.35;;;19.90;63.80;;;;;;4970880;28;20113;-64
2022/05/25 12:25:56;;;;;;;14.35;3.08;;;19.90;64.40;;;;;;4963087;28;20039;-63
2022/05/25 12:28:23;;;;;;;13.73;2.97;;;19.90;64.40;;;;;;4911689;29;20042;-63
2022/05/25 12:30:50;;;;;;;11.18;2.90;;;19.80;64.00;;;;;;4927106;29;20090;-64
2022/05/25 12:33:21;;;;;;;12.80;3.08;;;19.90;64.10;;;;;;4925392;29;20698;-64
2022/05/25 12:35:47;;;;;;;9.05;2.75;;;19.80;63.70;;;;;;4930271;29;20066;-64
2022/05/25 12:38:13;;;;;;;9.98;2.80;;;19.80;63.70;;;;;;4960001;28;20515;-64
2022/05/25 12:40:43;;;;;;;9.43;2.88;;;19.80;63.90;;;;;;4931133;29;20031;-65
2022/05/25 12:43:37;;;;;;;20.25;3.70;;;19.90;63.90;;;;;;4963543;28;20052;-65
2022/05/25 12:49:08;;;;;;;13.83;3.13;;;19.90;64.60;;;;;;5044277;28;20043;-65
2022/05/25 12:51:39;;;;;;;16.90;2.90;;;19.90;64.10;;;;;;5042560;28;20037;-65
2022/05/25 12:54:25;;;;;;;12.68;2.38;;;19.90;63.80;;;;;;5033441;28;20021;-65
2022/05/25 12:56:51;;;;;;;15.40;2.40;;;19.80;63.70;;;;;;5064337;28;20033;-65
2022/05/25 12:59:36;;;;;;;10.30;2.08;;;19.70;63.60;;;;;;5034837;28;20033;-65
2022/05/25 13:02:11;;;;;;;9.93;2.03;;;19.70;63.40;;;;;;5065573;28;20021;-65
2022/05/25 13:04:42;;;;;;;;;;;19.70;63.20;;;;;;5039200;28;20053;-68
2022/05/25 13:07:19;;;;;;;8.07;1.80;;;19.70;63.20;;;;;;5043021;28;20334;-68
2022/05/25 13:09:45;;;;;;;10.38;2.05;;;19.80;62.90;;;;;;5039053;28;20048;-67
2022/05/25 13:12:39;;;;;;;11.50;2.25;;;19.80;63.10;;;;;;5042407;28;20315;-68
2022/05/25 13:15:17;;;;;;;10.88;2.10;;;19.90;62.90;;;;;;5038528;28;20031;-69
2022/05/25 13:17:53;;;;;;;11.73;2.47;;;19.90;63.20;;;;;;5038055;28;20034;-69
2022/05/25 13:20:28;;;;;;;12.25;2.50;;;19.80;63.30;;;;;;5036728;28;20604;-68
2022/05/25 13:23:06;;;;;;;;;;;19.80;63.50;;;;;;5033727;28;20020;-67
2022/05/25 13:25:40;;;;;;;15.13;2.85;;;19.80;63.90;;;;;;5070793;28;20270;-68